sensor_id;sensor_type;location;lat;lon;timestamp;pressure;altitude;pressure_sealevel;temperature;humidity
69187;BME280;56301;56.864;60.554;2023-07-31T00:01:44;98007.63;;;25.03;53.16
69187;BME280;56301;56.864;60.554;2023-07-31T00:04:06;98012.22;;;25.02;53.00
69187;BME280;56301;56.864;60.554;2023-07-31T00:06:29;98006.16;;;25.00;53.24
69187;BME280;56301;56.864;60.554;2023-07-31T00:08:51;98019.47;;;25.02;53.20
69187;BME280;56301;56.864;60.554;2023-07-31T00:11:14;98021.34;;;25.01;52.96
69187;BME280;56301;56.864;60.554;2023-07-31T00:13:37;98019.47;;;25.02;53.97
69187;BME280;56301;56.864;60.554;2023-07-31T00:15:59;98015.94;;;25.01;53.12
69187;BME280;56301;56.864;60.554;2023-07-31T00:18:22;98015.53;;;25.04;53.85
69187;BME280;56301;56.864;60.554;2023-07-31T00:20:44;98009.94;;;25.06;53.58
69187;BME280;56301;56.864;60.554;2023-07-31T00:23:07;98019.50;;;25.08;53.29
69187;BME280;56301;56.864;60.554;2023-07-31T00:25:29;98022.81;;;25.04;52.02
69187;BME280;56301;56.864;60.554;2023-07-31T00:27:52;98017.06;;;24.31;53.40
69187;BME280;56301;56.864;60.554;2023-07-31T00:30:14;98030.84;;;24.08;53.90
69187;BME280;56301;56.864;60.554;2023-07-31T00:32:36;98030.16;;;23.99;54.10
69187;BME280;56301;56.864;60.554;2023-07-31T00:34:59;98029.25;;;23.92;54.00
69187;BME280;56301;56.864;60.554;2023-07-31T00:37:21;98035.22;;;24.09;54.50
69187;BME280;56301;56.864;60.554;2023-07-31T00:39:44;98024.13;;;24.32;55.01
69187;BME280;56301;56.864;60.554;2023-07-31T00:42:06;98026.44;;;24.35;56.16
69187;BME280;56301;56.864;60.554;2023-07-31T00:44:29;98032.09;;;24.40;55.38
69187;BME280;56301;56.864;60.554;2023-07-31T00:46:51;98024.25;;;24.45;55.91
69187;BME280;56301;56.864;60.554;2023-07-31T00:49:14;98033.06;;;24.60;54.51
69187;BME280;56301;56.864;60.554;2023-07-31T00:51:37;98031.88;;;24.69;54.43
69187;BME280;56301;56.864;60.554;2023-07-31T00:53:59;98042.09;;;24.81;54.14
69187;BME280;56301;56.864;60.554;2023-07-31T00:56:23;98028.78;;;24.86;54.60
69187;BME280;56301;56.864;60.554;2023-07-31T00:58:45;98027.16;;;24.91;54.26
69187;BME280;56301;56.864;60.554;2023-07-31T01:01:08;98027.16;;;24.91;54.71
69187;BME280;56301;56.864;60.554;2023-07-31T01:03:31;98021.53;;;24.93;53.91
69187;BME280;56301;56.864;60.554;2023-07-31T01:05:59;98021.53;;;24.93;53.99
69187;BME280;56301;56.864;60.554;2023-07-31T01:08:27;98014.06;;;24.95;53.88
69187;BME280;56301;56.864;60.554;2023-07-31T01:10:55;98022.78;;;24.97;54.18
69187;BME280;56301;56.864;60.554;2023-07-31T01:13:18;98024.06;;;25.01;53.54
69187;BME280;56301;56.864;60.554;2023-07-31T01:15:41;98031.16;;;25.02;53.43
69187;BME280;56301;56.864;60.554;2023-07-31T01:18:03;98032.81;;;25.03;54.17
69187;BME280;56301;56.864;60.554;2023-07-31T01:20:26;98033.25;;;25.07;53.94
69187;BME280;56301;56.864;60.554;2023-07-31T01:23:08;98034.28;;;25.06;53.68
69187;BME280;56301;56.864;60.554;2023-07-31T01:28:02;98038.44;;;25.08;54.18
69187;BME280;56301;56.864;60.554;2023-07-31T01:30:27;98032.00;;;25.09;53.81
69187;BME280;56301;56.864;60.554;2023-07-31T01:32:53;98037.25;;;25.11;53.57
69187;BME280;56301;56.864;60.554;2023-07-31T01:35:17;98038.41;;;25.02;52.76
69187;BME280;56301;56.864;60.554;2023-07-31T01:37:39;98035.38;;;24.35;53.45
69187;BME280;56301;56.864;60.554;2023-07-31T01:40:02;98038.84;;;24.22;54.28
69187;BME280;56301;56.864;60.554;2023-07-31T01:42:24;98045.00;;;24.10;53.99
69187;BME280;56301;56.864;60.554;2023-07-31T01:44:47;98035.94;;;23.96;53.83
69187;BME280;56301;56.864;60.554;2023-07-31T01:47:09;98050.84;;;24.13;54.47
69187;BME280;56301;56.864;60.554;2023-07-31T01:49:32;98043.06;;;24.32;55.82
69187;BME280;56301;56.864;60.554;2023-07-31T01:51:54;98048.16;;;24.41;55.69
69187;BME280;56301;56.864;60.554;2023-07-31T01:54:18;98035.69;;;24.47;56.64
69187;BME280;56301;56.864;60.554;2023-07-31T01:56:40;98038.03;;;24.57;55.15
69187;BME280;56301;56.864;60.554;2023-07-31T01:59:03;98041.00;;;24.68;55.21
69187;BME280;56301;56.864;60.554;2023-07-31T02:01:25;98038.75;;;24.79;54.73
69187;BME280;56301;56.864;60.554;2023-07-31T02:03:48;98034.84;;;24.88;53.91
69187;BME280;56301;56.864;60.554;2023-07-31T02:06:10;98035.47;;;24.90;53.81
69187;BME280;56301;56.864;60.554;2023-07-31T02:08:33;98027.78;;;24.93;53.93
69187;BME280;56301;56.864;60.554;2023-07-31T02:10:55;98031.97;;;24.96;54.47
69187;BME280;56301;56.864;60.554;2023-07-31T02:13:18;98033.44;;;24.98;53.83
69187;BME280;56301;56.864;60.554;2023-07-31T02:15:40;98024.47;;;24.98;54.42
69187;BME280;56301;56.864;60.554;2023-07-31T02:18:03;98033.22;;;25.00;54.43
69187;BME280;56301;56.864;60.554;2023-07-31T02:20:25;98029.47;;;25.01;53.41
69187;BME280;56301;56.864;60.554;2023-07-31T02:22:47;98034.47;;;25.04;53.93
69187;BME280;56301;56.864;60.554;2023-07-31T02:25:10;98034.47;;;25.04;53.93
69187;BME280;56301;56.864;60.554;2023-07-31T02:27:32;98033.25;;;25.07;53.80
69187;BME280;56301;56.864;60.554;2023-07-31T02:29:55;98025.97;;;25.07;53.67
69187;BME280;56301;56.864;60.554;2023-07-31T02:32:17;98033.72;;;25.10;53.73
69187;BME280;56301;56.864;60.554;2023-07-31T02:34:40;98035.56;;;25.10;53.38
69187;BME280;56301;56.864;60.554;2023-07-31T02:37:02;98032.84;;;25.10;53.23
69187;BME280;56301;56.864;60.554;2023-07-31T02:39:25;98032.47;;;25.13;54.04
69187;BME280;56301;56.864;60.554;2023-07-31T02:41:47;98025.19;;;25.13;53.34
69187;BME280;56301;56.864;60.554;2023-07-31T02:44:09;98026.47;;;24.76;53.56
69187;BME280;56301;56.864;60.554;2023-07-31T02:46:32;98030.69;;;24.44;55.54
69187;BME280;56301;56.864;60.554;2023-07-31T02:48:55;98027.34;;;24.14;55.20
69187;BME280;56301;56.864;60.554;2023-07-31T02:51:17;98030.16;;;23.99;55.37
69187;BME280;56301;56.864;60.554;2023-07-31T02:53:40;98036.00;;;24.02;55.47
69187;BME280;56301;56.864;60.554;2023-07-31T02:56:03;98029.50;;;24.25;56.35
69187;BME280;56301;56.864;60.554;2023-07-31T02:58:25;98031.09;;;24.41;55.67
69187;BME280;56301;56.864;60.554;2023-07-31T03:00:47;98029.94;;;24.63;53.92
69187;BME280;56301;56.864;60.554;2023-07-31T03:03:10;98032.72;;;24.77;53.28
69187;BME280;56301;56.864;60.554;2023-07-31T03:05:32;98025.03;;;24.87;53.91
69187;BME280;56301;56.864;60.554;2023-07-31T03:07:55;98025.28;;;24.92;53.55
69187;BME280;56301;56.864;60.554;2023-07-31T03:10:17;98019.25;;;24.96;53.88
69187;BME280;56301;56.864;60.554;2023-07-31T03:12:40;98021.75;;;24.98;53.39
69187;BME280;56301;56.864;60.554;2023-07-31T03:15:03;98027.59;;;25.02;53.59
69187;BME280;56301;56.864;60.554;2023-07-31T03:17:25;98023.66;;;25.04;53.64
69187;BME280;56301;56.864;60.554;2023-07-31T03:19:48;98020.75;;;25.06;53.63
69187;BME280;56301;56.864;60.554;2023-07-31T03:22:10;98013.06;;;25.09;53.77
69187;BME280;56301;56.864;60.554;2023-07-31T03:24:32;98009.97;;;25.12;54.29
69187;BME280;56301;56.864;60.554;2023-07-31T03:26:55;98007.25;;;25.12;54.15
69187;BME280;56301;56.864;60.554;2023-07-31T03:29:18;98003.31;;;25.15;53.75
69187;BME280;56301;56.864;60.554;2023-07-31T03:31:40;98002.47;;;25.14;53.61
69187;BME280;56301;56.864;60.554;2023-07-31T03:34:03;97998.25;;;25.05;52.69
69187;BME280;56301;56.864;60.554;2023-07-31T03:36:26;98005.06;;;24.40;52.96
69187;BME280;56301;56.864;60.554;2023-07-31T03:38:50;98006.97;;;24.18;54.50
69187;BME280;56301;56.864;60.554;2023-07-31T03:41:13;97992.09;;;24.29;55.41
69187;BME280;56301;56.864;60.554;2023-07-31T03:43:36;97992.91;;;24.22;56.28
69187;BME280;56301;56.864;60.554;2023-07-31T03:45:58;97997.34;;;24.37;56.13
69187;BME280;56301;56.864;60.554;2023-07-31T03:48:21;97991.00;;;24.51;56.28
69187;BME280;56301;56.864;60.554;2023-07-31T03:50:43;97991.69;;;24.66;55.65
69187;BME280;56301;56.864;60.554;2023-07-31T03:53:05;97992.56;;;24.80;54.26
69187;BME280;56301;56.864;60.554;2023-07-31T03:55:28;97982.41;;;24.89;54.29
69187;BME280;56301;56.864;60.554;2023-07-31T03:57:50;97987.00;;;24.95;53.69
69187;BME280;56301;56.864;60.554;2023-07-31T04:00:13;97985.75;;;24.97;53.84
69187;BME280;56301;56.864;60.554;2023-07-31T04:02:37;97984.50;;;25.00;54.37
69187;BME280;56301;56.864;60.554;2023-07-31T04:04:59;97991.56;;;25.01;53.72
69187;BME280;56301;56.864;60.554;2023-07-31T04:07:22;97984.72;;;25.05;54.59
69187;BME280;56301;56.864;60.554;2023-07-31T04:09:44;97979.13;;;25.07;53.66
69187;BME280;56301;56.864;60.554;2023-07-31T04:12:07;97977.88;;;25.09;53.66
69187;BME280;56301;56.864;60.554;2023-07-31T04:14:30;97967.06;;;25.09;53.91
69187;BME280;56301;56.864;60.554;2023-07-31T04:16:52;97965.00;;;25.11;53.80
69187;BME280;56301;56.864;60.554;2023-07-31T04:19:14;97968.34;;;25.13;54.00
69187;BME280;56301;56.864;60.554;2023-07-31T04:21:37;97965.63;;;25.13;53.55
69187;BME280;56301;56.864;60.554;2023-07-31T04:23:59;97967.94;;;25.16;53.87
69187;BME280;56301;56.864;60.554;2023-07-31T04:26:22;97964.22;;;24.63;53.89
69187;BME280;56301;56.864;60.554;2023-07-31T04:28:44;97976.63;;;24.16;54.48
69187;BME280;56301;56.864;60.554;2023-07-31T04:31:07;97971.41;;;24.14;55.33
69187;BME280;56301;56.864;60.554;2023-07-31T04:33:29;97968.09;;;24.12;56.89
69187;BME280;56301;56.864;60.554;2023-07-31T04:35:52;97965.47;;;24.32;57.38
69187;BME280;56301;56.864;60.554;2023-07-31T04:38:15;97957.72;;;24.57;55.53
69187;BME280;56301;56.864;60.554;2023-07-31T04:40:38;97956.53;;;24.80;54.91
69187;BME280;56301;56.864;60.554;2023-07-31T04:43:00;97962.66;;;24.95;54.83
69187;BME280;56301;56.864;60.554;2023-07-31T04:45:22;97960.16;;;25.00;54.52
69187;BME280;56301;56.864;60.554;2023-07-31T04:47:45;97959.94;;;25.08;54.37
69187;BME280;56301;56.864;60.554;2023-07-31T04:50:07;97959.16;;;25.14;54.06
69187;BME280;56301;56.864;60.554;2023-07-31T04:52:30;97953.78;;;25.21;54.08
69187;BME280;56301;56.864;60.554;2023-07-31T04:54:52;97955.03;;;25.25;53.80
69187;BME280;56301;56.864;60.554;2023-07-31T04:57:15;97962.50;;;25.30;54.23
69187;BME280;56301;56.864;60.554;2023-07-31T04:59:37;97966.16;;;24.89;54.07
69187;BME280;56301;56.864;60.554;2023-07-31T05:02:00;97971.84;;;24.11;53.64
69187;BME280;56301;56.864;60.554;2023-07-31T05:04:23;97974.06;;;24.01;55.20
69187;BME280;56301;56.864;60.554;2023-07-31T05:06:45;97969.53;;;24.08;56.24
69187;BME280;56301;56.864;60.554;2023-07-31T05:09:07;97975.00;;;24.21;56.69
69187;BME280;56301;56.864;60.554;2023-07-31T05:11:30;97978.47;;;24.43;56.79
69187;BME280;56301;56.864;60.554;2023-07-31T05:13:53;97979.59;;;24.62;55.57
69187;BME280;56301;56.864;60.554;2023-07-31T05:16:15;97977.38;;;24.86;55.08
69187;BME280;56301;56.864;60.554;2023-07-31T05:18:38;97968.69;;;25.04;54.99
69187;BME280;56301;56.864;60.554;2023-07-31T05:21:01;97973.34;;;25.16;54.88
69187;BME280;56301;56.864;60.554;2023-07-31T05:23:23;97974.59;;;25.20;54.58
69187;BME280;56301;56.864;60.554;2023-07-31T05:25:46;97979.09;;;24.45;53.69
69187;BME280;56301;56.864;60.554;2023-07-31T05:28:08;97980.44;;;23.93;54.24
69187;BME280;56301;56.864;60.554;2023-07-31T05:30:30;97980.28;;;24.01;55.62
69187;BME280;56301;56.864;60.554;2023-07-31T05:32:53;97976.97;;;24.06;56.32
69187;BME280;56301;56.864;60.554;2023-07-31T05:35:15;97979.28;;;24.09;56.78
69187;BME280;56301;56.864;60.554;2023-07-31T05:37:38;97975.63;;;24.23;57.55
69187;BME280;56301;56.864;60.554;2023-07-31T05:40:00;97979.75;;;24.54;56.76
69187;BME280;56301;56.864;60.554;2023-07-31T05:42:23;97966.97;;;24.83;54.97
69187;BME280;56301;56.864;60.554;2023-07-31T05:44:45;97973.47;;;25.02;54.80
69187;BME280;56301;56.864;60.554;2023-07-31T05:47:07;97975.81;;;25.11;54.62
69187;BME280;56301;56.864;60.554;2023-07-31T05:49:30;97974.53;;;24.46;54.34
69187;BME280;56301;56.864;60.554;2023-07-31T05:51:52;97979.50;;;23.80;53.63
69187;BME280;56301;56.864;60.554;2023-07-31T05:54:15;97989.13;;;23.89;55.53
69187;BME280;56301;56.864;60.554;2023-07-31T05:56:37;97972.38;;;24.00;55.71
69187;BME280;56301;56.864;60.554;2023-07-31T05:59:00;97975.72;;;24.02;56.48
69187;BME280;56301;56.864;60.554;2023-07-31T06:01:22;97975.72;;;24.02;56.84
69187;BME280;56301;56.864;60.554;2023-07-31T06:03:44;97978.91;;;24.12;56.80
69187;BME280;56301;56.864;60.554;2023-07-31T06:06:07;97975.88;;;24.29;56.33
69187;BME280;56301;56.864;60.554;2023-07-31T06:08:29;97976.69;;;24.29;56.14
69187;BME280;56301;56.864;60.554;2023-07-31T06:10:52;97976.25;;;24.25;55.81
69187;BME280;56301;56.864;60.554;2023-07-31T06:13:14;97976.69;;;24.22;56.43
69187;BME280;56301;56.864;60.554;2023-07-31T06:15:37;97978.69;;;24.14;56.52
69187;BME280;56301;56.864;60.554;2023-07-31T06:17:59;97978.91;;;24.12;56.39
69187;BME280;56301;56.864;60.554;2023-07-31T06:20:22;97974.09;;;24.08;57.03
69187;BME280;56301;56.864;60.554;2023-07-31T06:22:44;97969.66;;;24.00;56.60
69187;BME280;56301;56.864;60.554;2023-07-31T06:25:07;97976.31;;;23.97;56.54
69187;BME280;56301;56.864;60.554;2023-07-31T06:27:29;97978.50;;;24.15;56.48
69187;BME280;56301;56.864;60.554;2023-07-31T06:29:52;97974.16;;;24.21;56.89
69187;BME280;56301;56.864;60.554;2023-07-31T06:32:14;97971.88;;;24.24;56.04
69187;BME280;56301;56.864;60.554;2023-07-31T06:34:36;97970.00;;;24.18;56.99
69187;BME280;56301;56.864;60.554;2023-07-31T06:36:59;97969.19;;;24.24;56.83
69187;BME280;56301;56.864;60.554;2023-07-31T06:39:21;97973.41;;;24.34;55.85
69187;BME280;56301;56.864;60.554;2023-07-31T06:41:44;97970.69;;;24.34;56.13
69187;BME280;56301;56.864;60.554;2023-07-31T06:44:06;97966.13;;;24.34;56.02
69187;BME280;56301;56.864;60.554;2023-07-31T06:46:29;97971.31;;;24.36;56.65
69187;BME280;56301;56.864;60.554;2023-07-31T06:48:51;97970.06;;;24.32;57.02
69187;BME280;56301;56.864;60.554;2023-07-31T06:51:14;97960.69;;;24.27;57.45
69187;BME280;56301;56.864;60.554;2023-07-31T06:53:36;97959.63;;;24.29;56.59
69187;BME280;56301;56.864;60.554;2023-07-31T06:55:59;97957.72;;;24.16;57.03
69187;BME280;56301;56.864;60.554;2023-07-31T06:58:21;97964.91;;;24.37;56.64
69187;BME280;56301;56.864;60.554;2023-07-31T07:00:43;97955.06;;;24.29;57.04
69187;BME280;56301;56.864;60.554;2023-07-31T07:03:06;97957.53;;;24.24;57.30
69187;BME280;56301;56.864;60.554;2023-07-31T07:05:28;97954.19;;;24.22;56.38
69187;BME280;56301;56.864;60.554;2023-07-31T07:07:51;97956.75;;;24.30;57.20
69187;BME280;56301;56.864;60.554;2023-07-31T07:10:13;97953.53;;;24.48;56.50
69187;BME280;56301;56.864;60.554;2023-07-31T07:12:36;97950.25;;;24.59;56.39
69187;BME280;56301;56.864;60.554;2023-07-31T07:14:59;97941.94;;;24.67;56.51
69187;BME280;56301;56.864;60.554;2023-07-31T07:17:21;97954.00;;;24.65;56.30
69187;BME280;56301;56.864;60.554;2023-07-31T07:19:44;97947.75;;;24.64;56.77
69187;BME280;56301;56.864;60.554;2023-07-31T07:22:06;97947.56;;;24.66;56.27
69187;BME280;56301;56.864;60.554;2023-07-31T07:24:28;97951.28;;;24.58;55.92
69187;BME280;56301;56.864;60.554;2023-07-31T07:26:51;97946.28;;;24.55;56.57
69187;BME280;56301;56.864;60.554;2023-07-31T07:29:13;97948.81;;;24.63;56.72
69187;BME280;56301;56.864;60.554;2023-07-31T07:31:36;97943.63;;;24.68;56.05
69187;BME280;56301;56.864;60.554;2023-07-31T07:33:58;97941.97;;;24.74;56.18
69187;BME280;56301;56.864;60.554;2023-07-31T07:36:21;97945.13;;;24.84;55.42
69187;BME280;56301;56.864;60.554;2023-07-31T07:38:43;97945.75;;;24.93;55.26
69187;BME280;56301;56.864;60.554;2023-07-31T07:41:05;97944.13;;;24.98;55.60
69187;BME280;56301;56.864;60.554;2023-07-31T07:43:28;97946.41;;;25.08;55.68
69187;BME280;56301;56.864;60.554;2023-07-31T07:45:50;97948.97;;;25.16;55.55
69187;BME280;56301;56.864;60.554;2023-07-31T07:48:13;97950.63;;;25.11;55.48
69187;BME280;56301;56.864;60.554;2023-07-31T07:50:37;97961.56;;;24.89;55.18
69187;BME280;56301;56.864;60.554;2023-07-31T07:53:00;97963.41;;;24.76;55.14
69187;BME280;56301;56.864;60.554;2023-07-31T07:55:23;97953.56;;;24.61;53.81
69187;BME280;56301;56.864;60.554;2023-07-31T07:57:45;97953.53;;;24.48;53.37
69187;BME280;56301;56.864;60.554;2023-07-31T08:00:08;97956.34;;;24.33;52.52
69187;BME280;56301;56.864;60.554;2023-07-31T08:02:36;97957.59;;;24.31;51.64
69187;BME280;56301;56.864;60.554;2023-07-31T08:04:58;97957.59;;;24.31;51.28
69187;BME280;56301;56.864;60.554;2023-07-31T08:07:21;97943.75;;;24.40;50.87
69187;BME280;56301;56.864;60.554;2023-07-31T08:09:43;97945.53;;;24.33;50.43
69187;BME280;56301;56.864;60.554;2023-07-31T08:12:06;97945.88;;;24.17;49.96
69187;BME280;56301;56.864;60.554;2023-07-31T08:14:29;97948.91;;;24.07;49.92
69187;BME280;56301;56.864;60.554;2023-07-31T08:16:51;97954.50;;;23.99;49.29
69187;BME280;56301;56.864;60.554;2023-07-31T08:19:14;97949.03;;;23.92;48.98
69187;BME280;56301;56.864;60.554;2023-07-31T08:21:36;97957.31;;;23.84;48.78
69187;BME280;56301;56.864;60.554;2023-07-31T08:23:58;97948.59;;;23.82;48.21
69187;BME280;56301;56.864;60.554;2023-07-31T08:26:21;97952.50;;;23.80;47.92
69187;BME280;56301;56.864;60.554;2023-07-31T08:28:43;97953.50;;;23.72;47.57
69187;BME280;56301;56.864;60.554;2023-07-31T08:31:06;97955.06;;;23.66;47.54
69187;BME280;56301;56.864;60.554;2023-07-31T08:33:28;97950.06;;;23.63;47.30
69187;BME280;56301;56.864;60.554;2023-07-31T08:35:51;97946.47;;;23.56;47.28
69187;BME280;56301;56.864;60.554;2023-07-31T08:38:13;97946.06;;;23.59;47.40
69187;BME280;56301;56.864;60.554;2023-07-31T08:40:36;97952.47;;;23.51;46.56
69187;BME280;56301;56.864;60.554;2023-07-31T08:42:59;97952.47;;;23.51;46.66
69187;BME280;56301;56.864;60.554;2023-07-31T08:45:21;97944.34;;;23.51;46.77
69187;BME280;56301;56.864;60.554;2023-07-31T08:47:47;97942.88;;;23.49;47.19
69187;BME280;56301;56.864;60.554;2023-07-31T08:50:12;97939.78;;;23.52;46.69
69187;BME280;56301;56.864;60.554;2023-07-31T08:52:34;97939.78;;;23.52;46.24
69187;BME280;56301;56.864;60.554;2023-07-31T08:54:57;97935.63;;;23.49;46.30
69187;BME280;56301;56.864;60.554;2023-07-31T08:57:20;97936.41;;;23.43;46.61
69187;BME280;56301;56.864;60.554;2023-07-31T08:59:42;97930.56;;;23.40;46.70
69187;BME280;56301;56.864;60.554;2023-07-31T09:02:06;97925.63;;;23.43;46.05
69187;BME280;56301;56.864;60.554;2023-07-31T09:04:29;97928.31;;;23.43;46.29
69187;BME280;56301;56.864;60.554;2023-07-31T09:06:53;97926.22;;;23.39;46.16
69187;BME280;56301;56.864;60.554;2023-07-31T09:09:19;97924.50;;;23.38;45.91
69187;BME280;56301;56.864;60.554;2023-07-31T09:11:41;97929.28;;;23.36;45.95
69187;BME280;56301;56.864;60.554;2023-07-31T09:14:04;97928.25;;;23.37;45.70
69187;BME280;56301;56.864;60.554;2023-07-31T09:16:27;97931.72;;;23.30;45.97
69187;BME280;56301;56.864;60.554;2023-07-31T09:18:53;97919.78;;;23.40;45.68
69187;BME280;56301;56.864;60.554;2023-07-31T09:21:16;97920.59;;;23.40;46.06
69187;BME280;56301;56.864;60.554;2023-07-31T09:23:42;97922.09;;;23.43;46.34
69187;BME280;56301;56.864;60.554;2023-07-31T09:26:05;97911.50;;;23.48;46.49
69187;BME280;56301;56.864;60.554;2023-07-31T09:28:30;97904.31;;;23.55;47.23
69187;BME280;56301;56.864;60.554;2023-07-31T09:30:53;97908.09;;;23.61;46.82
69187;BME280;56301;56.864;60.554;2023-07-31T09:33:16;97903.13;;;23.64;47.10
69187;BME280;56301;56.864;60.554;2023-07-31T09:35:39;97902.75;;;23.67;47.13
69187;BME280;56301;56.864;60.554;2023-07-31T09:38:06;97898.75;;;23.63;47.68
69187;BME280;56301;56.864;60.554;2023-07-31T09:40:29;97892.72;;;23.61;47.69
69187;BME280;56301;56.864;60.554;2023-07-31T09:42:52;97886.06;;;23.57;47.86
69187;BME280;56301;56.864;60.554;2023-07-31T09:45:15;97888.09;;;23.55;47.84
69187;BME280;56301;56.864;60.554;2023-07-31T09:47:37;97881.88;;;23.54;47.96
69187;BME280;56301;56.864;60.554;2023-07-31T09:49:59;97890.59;;;23.57;48.01
69187;BME280;56301;56.864;60.554;2023-07-31T09:52:22;97888.34;;;23.60;48.45
69187;BME280;56301;56.864;60.554;2023-07-31T09:54:45;97875.47;;;23.62;47.94
69187;BME280;56301;56.864;60.554;2023-07-31T09:57:07;97879.44;;;23.66;48.11
69187;BME280;56301;56.864;60.554;2023-07-31T09:59:31;97880.88;;;23.62;48.53
69187;BME280;56301;56.864;60.554;2023-07-31T10:01:53;97882.75;;;23.62;48.60
69187;BME280;56301;56.864;60.554;2023-07-31T10:04:18;97882.75;;;23.62;48.23
69187;BME280;56301;56.864;60.554;2023-07-31T10:06:45;97875.25;;;23.57;48.45
69187;BME280;56301;56.864;60.554;2023-07-31T10:09:09;97866.50;;;23.55;48.31
69187;BME280;56301;56.864;60.554;2023-07-31T10:11:33;97859.84;;;23.51;48.82
69187;BME280;56301;56.864;60.554;2023-07-31T10:14:00;97862.31;;;23.46;48.88
69187;BME280;56301;56.864;60.554;2023-07-31T10:16:23;97866.28;;;23.50;48.70
69187;BME280;56301;56.864;60.554;2023-07-31T10:18:46;97857.91;;;23.45;48.45
69187;BME280;56301;56.864;60.554;2023-07-31T10:21:09;97861.06;;;23.48;48.50
69187;BME280;56301;56.864;60.554;2023-07-31T10:23:31;97858.84;;;23.59;48.69
69187;BME280;56301;56.864;60.554;2023-07-31T10:25:54;97850.78;;;23.65;48.63
69187;BME280;56301;56.864;60.554;2023-07-31T10:28:17;97848.69;;;23.61;49.32
69187;BME280;56301;56.864;60.554;2023-07-31T10:30:39;97843.28;;;23.61;48.86
69187;BME280;56301;56.864;60.554;2023-07-31T10:33:03;97847.00;;;23.60;49.50
69187;BME280;56301;56.864;60.554;2023-07-31T10:35:25;97848.03;;;23.59;49.73
69187;BME280;56301;56.864;60.554;2023-07-31T10:37:49;97847.81;;;23.60;49.67
69187;BME280;56301;56.864;60.554;2023-07-31T10:40:13;97853.88;;;23.62;50.38
69187;BME280;56301;56.864;60.554;2023-07-31T10:42:38;97836.53;;;23.71;50.84
69187;BME280;56301;56.864;60.554;2023-07-31T10:45:10;97844.63;;;23.78;51.04
69187;BME280;56301;56.864;60.554;2023-07-31T10:47:43;97838.56;;;23.69;51.24
69187;BME280;56301;56.864;60.554;2023-07-31T10:50:21;97832.59;;;23.81;51.90
69187;BME280;56301;56.864;60.554;2023-07-31T10:52:47;97834.91;;;23.84;52.46
69187;BME280;56301;56.864;60.554;2023-07-31T10:57:38;97826.88;;;23.97;53.13
69187;BME280;56301;56.864;60.554;2023-07-31T11:02:42;97823.53;;;23.95;54.43
69187;BME280;56301;56.864;60.554;2023-07-31T11:05:17;97828.13;;;24.01;54.79
69187;BME280;56301;56.864;60.554;2023-07-31T11:07:47;97819.00;;;24.02;54.84
69187;BME280;56301;56.864;60.554;2023-07-31T11:10:09;97814.81;;;23.99;54.83
69187;BME280;56301;56.864;60.554;2023-07-31T11:12:32;97813.19;;;24.05;54.99
69187;BME280;56301;56.864;60.554;2023-07-31T11:14:57;97813.63;;;24.15;55.30
69187;BME280;56301;56.864;60.554;2023-07-31T11:17:19;97807.81;;;24.12;55.45
69187;BME280;56301;56.864;60.554;2023-07-31T11:19:42;97807.81;;;24.12;55.65
69187;BME280;56301;56.864;60.554;2023-07-31T11:22:04;97805.94;;;24.25;54.61
69187;BME280;56301;56.864;60.554;2023-07-31T11:24:27;97804.53;;;24.30;53.82
69187;BME280;56301;56.864;60.554;2023-07-31T11:26:50;97798.28;;;24.36;55.48
69187;BME280;56301;56.864;60.554;2023-07-31T11:29:13;97807.03;;;24.38;54.94
69187;BME280;56301;56.864;60.554;2023-07-31T11:31:41;97801.63;;;24.31;56.08
69187;BME280;56301;56.864;60.554;2023-07-31T11:34:04;97815.34;;;24.36;55.80
69187;BME280;56301;56.864;60.554;2023-07-31T11:36:27;97802.69;;;24.37;55.45
69187;BME280;56301;56.864;60.554;2023-07-31T11:38:50;97802.69;;;24.37;54.86
69187;BME280;56301;56.864;60.554;2023-07-31T11:41:13;97801.00;;;24.36;56.06
69187;BME280;56301;56.864;60.554;2023-07-31T11:43:36;97796.22;;;24.38;55.42
69187;BME280;56301;56.864;60.554;2023-07-31T11:45:59;97799.97;;;24.37;54.68
69187;BME280;56301;56.864;60.554;2023-07-31T11:48:22;97795.13;;;24.25;56.60
69187;BME280;56301;56.864;60.554;2023-07-31T11:50:45;97803.69;;;24.22;56.54
69187;BME280;56301;56.864;60.554;2023-07-31T11:53:08;97802.41;;;24.25;56.94
69187;BME280;56301;56.864;60.554;2023-07-31T11:55:31;97796.22;;;24.31;56.32
69187;BME280;56301;56.864;60.554;2023-07-31T11:57:55;97798.69;;;24.33;53.98
69187;BME280;56301;56.864;60.554;2023-07-31T12:00:19;97792.69;;;24.31;56.13
69187;BME280;56301;56.864;60.554;2023-07-31T12:02:42;97787.69;;;24.27;56.65
69187;BME280;56301;56.864;60.554;2023-07-31T12:05:06;97795.56;;;24.22;56.37
69187;BME280;56301;56.864;60.554;2023-07-31T12:07:46;97797.00;;;24.25;56.60
69187;BME280;56301;56.864;60.554;2023-07-31T12:10:08;97793.06;;;24.21;56.94
69187;BME280;56301;56.864;60.554;2023-07-31T12:12:31;97789.09;;;24.17;56.77
69187;BME280;56301;56.864;60.554;2023-07-31T12:14:53;97784.75;;;24.16;57.00
69187;BME280;56301;56.864;60.554;2023-07-31T12:17:17;97784.53;;;24.17;57.05
69187;BME280;56301;56.864;60.554;2023-07-31T12:19:41;97785.53;;;24.10;56.42
69187;BME280;56301;56.864;60.554;2023-07-31T12:22:11;97785.56;;;24.16;57.05
69187;BME280;56301;56.864;60.554;2023-07-31T12:24:33;97775.81;;;24.29;56.67
69187;BME280;56301;56.864;60.554;2023-07-31T12:26:56;97781.63;;;24.25;56.15
69187;BME280;56301;56.864;60.554;2023-07-31T12:29:18;97775.41;;;24.18;56.82
69187;BME280;56301;56.864;60.554;2023-07-31T12:31:41;97773.09;;;24.15;57.08
69187;BME280;56301;56.864;60.554;2023-07-31T12:34:13;97771.84;;;24.18;57.30
69187;BME280;56301;56.864;60.554;2023-07-31T12:36:36;97772.06;;;24.23;57.36